createdAt,value
2018-10-09T00:02:07.767Z,101560.42
2018-10-09T00:04:36.161Z,101564.84
2018-10-09T00:07:04.462Z,101563.36
2018-10-09T00:09:32.754Z,101555.05
2018-10-09T00:12:00.991Z,101555.27
2018-10-09T00:14:29.265Z,101547.62
2018-10-09T00:16:57.530Z,101549.06
2018-10-09T00:19:25.863Z,101536.78
2018-10-09T00:21:54.142Z,101530.09
2018-10-09T00:24:22.445Z,101521.75
2018-10-09T00:26:50.661Z,101520.70
2018-10-09T00:29:18.911Z,101527.47
2018-10-09T00:31:47.207Z,101529.13
2018-10-09T00:34:15.474Z,101520.00
2018-10-09T00:36:43.711Z,101521.79
2018-10-09T00:39:12.116Z,101517.86
2018-10-09T00:41:40.490Z,101532.63
2018-10-09T00:44:08.966Z,101533.68
2018-10-09T00:46:37.206Z,101531.53
2018-10-09T00:49:05.688Z,101533.46
2018-10-09T00:51:33.957Z,101532.66
2018-10-09T00:54:02.231Z,101534.67
2018-10-09T00:56:30.470Z,101533.97
2018-10-09T00:58:58.919Z,101531.89
2018-10-09T01:01:27.307Z,101544.26
2018-10-09T01:03:55.586Z,101545.79
2018-10-09T01:06:23.851Z,101546.62
2018-10-09T01:08:52.157Z,101547.00
2018-10-09T01:11:20.487Z,101550.23
2018-10-09T01:13:48.767Z,101545.34
2018-10-09T01:16:17.023Z,101536.74
2018-10-09T01:18:45.254Z,101546.41
2018-10-09T01:21:13.571Z,101542.23
2018-10-09T01:23:41.825Z,101542.23
2018-10-09T01:26:10.140Z,101541.84
2018-10-09T01:28:38.601Z,101546.44
2018-10-09T01:31:07.030Z,101541.20
2018-10-09T01:33:35.243Z,101550.38
2018-10-09T01:36:03.556Z,101547.05
2018-10-09T01:38:31.825Z,101544.16
2018-10-09T01:41:00.103Z,101545.83
2018-10-09T01:43:28.318Z,101552.98
2018-10-09T01:45:56.589Z,101551.63
2018-10-09T01:48:24.841Z,101546.86
2018-10-09T01:50:53.103Z,101556.52
2018-10-09T01:53:21.336Z,101563.07
2018-10-09T01:55:49.599Z,101566.65
2018-10-09T01:58:17.861Z,101570.10
2018-10-09T02:00:46.153Z,101567.48
2018-10-09T02:03:14.408Z,101562.33
2018-10-09T02:05:42.651Z,101559.45
2018-10-09T02:08:10.899Z,101557.07
2018-10-09T02:10:39.176Z,101558.13
2018-10-09T02:13:07.506Z,101543.09
2018-10-09T02:15:35.747Z,101542.26
2018-10-09T02:18:03.990Z,101538.77
2018-10-09T02:20:32.259Z,101537.23
2018-10-09T02:23:00.501Z,101535.53
2018-10-09T02:25:28.833Z,101534.13
2018-10-09T02:27:57.092Z,101527.31
2018-10-09T02:30:25.352Z,101530.41
2018-10-09T02:32:53.623Z,101532.08
2018-10-09T02:35:21.974Z,101526.01
2018-10-09T02:37:50.224Z,101518.89
2018-10-09T02:40:18.443Z,101519.45
2018-10-09T02:42:46.754Z,101515.39
2018-10-09T02:45:15.011Z,101512.63
2018-10-09T02:47:43.357Z,101510.01
2018-10-09T02:50:11.599Z,101508.58
2018-10-09T02:52:39.820Z,101508.00
2018-10-09T02:55:08.155Z,101500.41
2018-10-09T02:57:36.422Z,101494.69
2018-10-09T03:00:04.763Z,101500.16
2018-10-09T03:02:33.003Z,101493.04
2018-10-09T03:05:01.271Z,101498.28
2018-10-09T03:07:29.561Z,101492.34
2018-10-09T03:09:57.807Z,101484.96
2018-10-09T03:12:26.027Z,101482.69
2018-10-09T03:14:54.309Z,101479.80
2018-10-09T03:17:22.571Z,101479.45
2018-10-09T03:19:50.847Z,101478.23
2018-10-09T03:22:19.099Z,101486.43
2018-10-09T03:24:47.360Z,101482.11
2018-10-09T03:27:15.621Z,101484.50
2018-10-09T03:29:43.849Z,101479.57
2018-10-09T03:32:12.093Z,101476.45
2018-10-09T03:34:40.353Z,101470.69
2018-10-09T03:37:08.612Z,101474.63
2018-10-09T03:39:36.929Z,101475.22
2018-10-09T03:42:05.196Z,101472.12
2018-10-09T03:44:33.645Z,101473.31
2018-10-09T03:47:01.929Z,101472.00
2018-10-09T03:49:30.201Z,101475.36
2018-10-09T03:51:58.471Z,101472.14
2018-10-09T03:54:26.823Z,101475.36
2018-10-09T03:56:55.065Z,101471.52
2018-10-09T03:59:23.456Z,101474.00
2018-10-09T04:01:51.742Z,101475.91
2018-10-09T04:04:19.999Z,101477.22
2018-10-09T04:06:48.233Z,101473.30
2018-10-09T04:09:16.530Z,101481.98
2018-10-09T04:11:44.765Z,101484.60
2018-10-09T04:14:13.093Z,101486.88
2018-10-09T04:16:41.385Z,101483.93
2018-10-09T04:19:09.848Z,101485.84
2018-10-09T04:21:38.110Z,101494.95
2018-10-09T04:24:06.377Z,101495.31
2018-10-09T04:26:34.861Z,101490.34
2018-10-09T04:29:03.111Z,101484.39
2018-10-09T04:31:31.369Z,101477.67
2018-10-09T04:33:59.593Z,101476.34
2018-10-09T04:36:27.887Z,101479.65
2018-10-09T04:38:56.153Z,101481.52
2018-10-09T04:41:24.369Z,101483.88
2018-10-09T04:43:52.662Z,101479.11
2018-10-09T04:46:20.870Z,101481.37
2018-10-09T04:48:49.141Z,101498.04
2018-10-09T04:51:17.952Z,101492.20
2018-10-09T04:53:46.213Z,101491.91
2018-10-09T04:56:14.490Z,101495.83
2018-10-09T04:58:42.755Z,101499.52
2018-10-09T05:01:10.999Z,101505.41
2018-10-09T05:03:39.298Z,101503.36
2018-10-09T05:06:07.789Z,101510.38
2018-10-09T05:08:36.040Z,101514.40
2018-10-09T05:11:04.397Z,101504.87
2018-10-09T05:13:32.674Z,101507.62
2018-10-09T05:16:00.966Z,101502.47
2018-10-09T05:18:29.226Z,101499.38
2018-10-09T05:20:57.530Z,101506.75
2018-10-09T05:23:25.804Z,101510.53
2018-10-09T05:25:54.106Z,101503.36
2018-10-09T05:28:22.447Z,101508.34
2018-10-09T05:30:50.663Z,101512.27
2018-10-09T05:33:19.169Z,101513.36
2018-10-09T05:35:47.426Z,101520.17
2018-10-09T05:38:15.693Z,101526.03
2018-10-09T05:40:43.975Z,101525.47
2018-10-09T05:43:12.251Z,101522.25
2018-10-09T05:45:41.195Z,101526.39
2018-10-09T05:48:10.543Z,101527.55
2018-10-09T05:50:38.868Z,101531.69
2018-10-09T05:53:07.243Z,101532.28
2018-10-09T05:55:36.284Z,101524.52
2018-10-09T05:58:04.587Z,101528.84
2018-10-09T06:00:32.830Z,101533.83
2018-10-09T06:03:01.347Z,101537.67
2018-10-09T06:05:30.147Z,101545.80
2018-10-09T06:07:58.421Z,101540.34
2018-10-09T06:10:26.665Z,101542.28
2018-10-09T06:12:54.937Z,101547.94
2018-10-09T06:15:23.215Z,101558.82
2018-10-09T06:17:51.474Z,101555.66
2018-10-09T06:20:19.778Z,101557.86
2018-10-09T06:22:48.038Z,101551.95
2018-10-09T06:25:16.465Z,101560.00
2018-10-09T06:27:44.737Z,101563.28
2018-10-09T06:30:13.009Z,101558.53
2018-10-09T06:32:41.362Z,101561.20
2018-10-09T06:35:09.625Z,101558.89
2018-10-09T06:37:37.879Z,101554.97
2018-10-09T06:40:06.461Z,101555.97
2018-10-09T06:42:34.814Z,101558.02
2018-10-09T06:45:03.050Z,101560.08
2018-10-09T06:47:31.340Z,101566.45
2018-10-09T06:49:59.583Z,101566.45
2018-10-09T06:52:27.868Z,101572.56
2018-10-09T06:54:56.168Z,101575.22
2018-10-09T06:57:24.508Z,101580.59
2018-10-09T06:59:52.836Z,101591.00
2018-10-09T07:02:21.270Z,101585.27
2018-10-09T07:04:49.548Z,101584.92
2018-10-09T07:07:17.808Z,101588.28
2018-10-09T07:09:46.103Z,101594.32
2018-10-09T07:12:14.402Z,101595.63
2018-10-09T07:14:42.766Z,101591.11
2018-10-09T07:17:11.171Z,101587.31
2018-10-09T07:19:39.375Z,101583.88
2018-10-09T07:22:07.675Z,101591.52
2018-10-09T07:24:36.184Z,101595.24
2018-10-09T07:27:04.656Z,101603.84
2018-10-09T07:29:32.972Z,101600.40
2018-10-09T07:32:01.276Z,101604.11
2018-10-09T07:34:29.607Z,101600.77
2018-10-09T07:36:57.902Z,101609.01
2018-10-09T07:39:26.207Z,101608.98
2018-10-09T07:41:54.470Z,101611.88
2018-10-09T07:44:22.772Z,101610.92
2018-10-09T07:46:51.048Z,101610.44
2018-10-09T07:49:19.309Z,101605.54
2018-10-09T07:51:47.562Z,101614.23
2018-10-09T07:54:15.835Z,101609.67
2018-10-09T07:56:44.099Z,101614.31
2018-10-09T07:59:12.352Z,101614.75
2018-10-09T08:01:40.616Z,101617.83
2018-10-09T08:04:08.886Z,101617.91
2018-10-09T08:06:37.286Z,101615.06
2018-10-09T08:09:08.496Z,101619.34
2018-10-09T08:11:36.766Z,101613.69
2018-10-09T08:14:05.031Z,101620.34
2018-10-09T08:16:33.288Z,101612.05
2018-10-09T08:19:01.724Z,101617.44
2018-10-09T08:21:30.017Z,101615.96
2018-10-09T08:23:58.291Z,101618.77
2018-10-09T08:26:26.613Z,101609.36
2018-10-09T08:28:54.917Z,101612.25
2018-10-09T08:31:23.238Z,101615.17
2018-10-09T08:33:51.506Z,101614.70
2018-10-09T08:36:19.752Z,101616.48
2018-10-09T08:38:48.278Z,101617.31
2018-10-09T08:41:16.552Z,101623.25
2018-10-09T08:43:44.873Z,101627.49
2018-10-09T08:46:13.259Z,101628.19
2018-10-09T08:48:42.072Z,101621.61
2018-10-09T08:51:10.367Z,101621.68
2018-10-09T08:53:38.631Z,101616.47
2018-10-09T08:56:07.280Z,101624.45
2018-10-09T08:58:35.585Z,101626.47
2018-10-09T09:01:03.867Z,101620.41
2018-10-09T09:03:32.235Z,101619.25
2018-10-09T09:06:00.432Z,101614.70
2018-10-09T09:08:28.914Z,101623.84
2018-10-09T09:10:57.183Z,101630.06
2018-10-09T09:13:25.451Z,101632.75
2018-10-09T09:15:53.784Z,101636.19
2018-10-09T09:18:22.016Z,101639.61
2018-10-09T09:20:50.301Z,101635.75
2018-10-09T09:23:18.585Z,101628.67
2018-10-09T09:25:46.833Z,101637.52
2018-10-09T09:28:15.179Z,101638.27
2018-10-09T09:30:43.440Z,101635.83
2018-10-09T09:33:11.794Z,101633.55
2018-10-09T09:35:40.081Z,101629.17
2018-10-09T09:38:08.377Z,101631.78
2018-10-09T09:40:36.794Z,101628.89
2018-10-09T09:43:05.050Z,101628.16
2018-10-09T09:45:33.321Z,101621.92
2018-10-09T09:48:01.663Z,101626.34
2018-10-09T09:50:29.966Z,101629.08
2018-10-09T09:52:58.273Z,101624.44
2018-10-09T09:55:26.620Z,101619.27
2018-10-09T09:57:54.993Z,101619.48
2018-10-09T10:00:28.505Z,101619.14
2018-10-09T10:02:56.827Z,101621.34
2018-10-09T10:05:25.159Z,101609.14
2018-10-09T10:07:53.411Z,101613.52
2018-10-09T10:10:21.705Z,101610.95
2018-10-09T10:12:50.006Z,101612.87
2018-10-09T10:15:18.488Z,101612.48
2018-10-09T10:17:46.751Z,101614.61
2018-10-09T10:20:15.093Z,101620.37
2018-10-09T10:22:43.390Z,101619.00
2018-10-09T10:25:11.642Z,101618.95
2018-10-09T10:27:39.908Z,101611.11
2018-10-09T10:30:08.208Z,101602.90
2018-10-09T10:32:36.525Z,101605.45
2018-10-09T10:35:04.876Z,101600.17
2018-10-09T10:37:33.169Z,101602.84
2018-10-09T10:40:01.438Z,101599.05
2018-10-09T10:42:29.715Z,101594.78
2018-10-09T10:44:57.988Z,101596.30
2018-10-09T10:47:26.279Z,101593.15
2018-10-09T10:49:54.562Z,101593.30
2018-10-09T10:52:22.825Z,101592.82
2018-10-09T10:54:51.177Z,101592.19
2018-10-09T10:57:19.417Z,101586.37
2018-10-09T10:59:47.755Z,101585.70
2018-10-09T11:02:16.034Z,101585.19
2018-10-09T11:04:44.324Z,101585.17
2018-10-09T11:07:12.602Z,101579.37
2018-10-09T11:09:40.931Z,101587.03
2018-10-09T11:12:09.205Z,101582.13
2018-10-09T11:14:37.569Z,101586.83
2018-10-09T11:17:05.787Z,101582.58
2018-10-09T11:19:34.048Z,101579.95
2018-10-09T11:22:02.355Z,101576.34
2018-10-09T11:24:30.610Z,101573.44
2018-10-09T11:26:58.913Z,101575.13
2018-10-09T11:29:27.288Z,101577.45
2018-10-09T11:31:55.531Z,101562.84
2018-10-09T11:34:23.826Z,101563.17
2018-10-09T11:36:52.060Z,101565.84
2018-10-09T11:39:20.407Z,101559.00
2018-10-09T11:41:48.670Z,101557.62
2018-10-09T11:44:16.970Z,101556.65
2018-10-09T11:46:45.236Z,101553.97
2018-10-09T11:49:13.487Z,101548.45
2018-10-09T11:51:41.995Z,101547.74
2018-10-09T11:54:10.629Z,101548.18
2018-10-09T11:56:39.124Z,101537.16
2018-10-09T11:59:07.648Z,101535.93
2018-10-09T12:01:36.999Z,101535.39
2018-10-09T12:04:05.264Z,101531.69
2018-10-09T12:06:33.531Z,101530.86
2018-10-09T12:09:01.821Z,101530.16
2018-10-09T12:11:30.088Z,101525.50
2018-10-09T12:13:58.380Z,101513.80
2018-10-09T12:16:26.718Z,101517.95
2018-10-09T12:18:54.999Z,101515.79
2018-10-09T12:21:23.299Z,101507.77
2018-10-09T12:23:51.601Z,101511.25
2018-10-09T12:26:19.874Z,101511.25
2018-10-09T12:28:48.155Z,101506.62
2018-10-09T12:31:16.548Z,101508.23
2018-10-09T12:33:44.836Z,101507.56
2018-10-09T12:36:13.130Z,101505.05
2018-10-09T12:38:41.471Z,101498.34
2018-10-09T12:41:09.814Z,101499.13
2018-10-09T12:43:38.109Z,101498.77
2018-10-09T12:46:06.382Z,101498.37
2018-10-09T12:48:35.027Z,101496.38
2018-10-09T12:51:03.330Z,101492.69
2018-10-09T12:53:31.639Z,101487.97
2018-10-09T12:56:00.381Z,101484.54
2018-10-09T12:58:28.680Z,101488.08
2018-10-09T13:00:56.949Z,101477.34
2018-10-09T13:03:25.476Z,101479.75
2018-10-09T13:05:53.723Z,101473.39
2018-10-09T13:08:21.999Z,101470.52
2018-10-09T13:10:50.312Z,101471.86
2018-10-09T13:13:19.287Z,101464.56
2018-10-09T13:15:47.594Z,101469.53
2018-10-09T13:18:15.938Z,101465.79
2018-10-09T13:20:44.649Z,101478.96
2018-10-09T13:23:12.944Z,101476.09
2018-10-09T13:25:41.253Z,101470.76
2018-10-09T13:28:09.638Z,101469.88
2018-10-09T13:30:37.902Z,101474.00
2018-10-09T13:33:06.384Z,101470.83
2018-10-09T13:35:35.456Z,101466.31
2018-10-09T13:38:03.813Z,101463.73
2018-10-09T13:40:32.058Z,101460.97
2018-10-09T13:43:00.443Z,101464.55
2018-10-09T13:45:28.676Z,101458.70
2018-10-09T13:47:56.954Z,101448.65
2018-10-09T13:50:25.281Z,101451.46
2018-10-09T13:52:53.525Z,101451.27
2018-10-09T13:55:21.880Z,101439.63
2018-10-09T13:57:50.122Z,101447.83
2018-10-09T14:00:18.454Z,101448.65
2018-10-09T14:02:46.713Z,101449.62
2018-10-09T14:05:14.968Z,101444.94
2018-10-09T14:07:43.288Z,101451.03
2018-10-09T14:10:11.581Z,101449.55
2018-10-09T14:12:39.872Z,101446.44
2018-10-09T14:15:08.284Z,101443.52
2018-10-09T14:17:36.461Z,101450.02
2018-10-09T14:20:04.763Z,101444.84
2018-10-09T14:22:33.172Z,101446.80
2018-10-09T14:25:01.394Z,101446.18
2018-10-09T14:27:29.664Z,101442.12
2018-10-09T14:29:57.953Z,101441.02
2018-10-09T14:32:26.497Z,101439.53
2018-10-09T14:34:54.859Z,101438.52
2018-10-09T14:37:23.235Z,101434.11
2018-10-09T14:39:51.520Z,101437.31
2018-10-09T14:42:20.264Z,101446.52
2018-10-09T14:44:48.616Z,101446.40
2018-10-09T14:47:17.655Z,101438.25
2018-10-09T14:49:45.965Z,101440.31
2018-10-09T14:52:14.480Z,101445.19
2018-10-09T14:54:42.790Z,101447.72
2018-10-09T14:57:11.063Z,101441.92
2018-10-09T14:59:39.350Z,101444.64
2018-10-09T15:02:08.156Z,101445.67
2018-10-09T15:04:36.444Z,101445.61
2018-10-09T15:07:04.703Z,101447.42
2018-10-09T15:09:33.035Z,101445.00
2018-10-09T15:12:01.283Z,101448.19
2018-10-09T15:14:29.606Z,101455.41
2018-10-09T15:16:57.901Z,101460.63
2018-10-09T15:19:26.144Z,101456.21
2018-10-09T15:21:54.416Z,101459.08
2018-10-09T15:24:22.679Z,101453.59
2018-10-09T15:26:50.984Z,101457.94
2018-10-09T15:29:19.264Z,101459.08
2018-10-09T15:31:47.767Z,101463.44
2018-10-09T15:34:16.077Z,101461.45
2018-10-09T15:36:44.839Z,101459.14
2018-10-09T15:39:13.659Z,101461.21
2018-10-09T15:41:42.574Z,101459.76
2018-10-09T15:44:10.837Z,101461.61
2018-10-09T15:46:39.351Z,101463.80
2018-10-09T15:49:07.916Z,101469.98
2018-10-09T15:51:36.180Z,101474.88
2018-10-09T15:54:04.459Z,101470.72
2018-10-09T15:56:32.865Z,101463.62
2018-10-09T15:59:01.538Z,101467.33
2018-10-09T16:01:29.772Z,101469.70
2018-10-09T16:03:58.061Z,101467.22
2018-10-09T16:06:26.301Z,101469.08
2018-10-09T16:08:54.548Z,101463.14
2018-10-09T16:11:22.842Z,101463.53
2018-10-09T16:13:51.126Z,101452.23
2018-10-09T16:16:19.412Z,101460.92
2018-10-09T16:18:47.679Z,101472.59
2018-10-09T16:21:15.950Z,101471.27
2018-10-09T16:23:44.256Z,101471.13
2018-10-09T16:26:12.536Z,101469.33
2018-10-09T16:28:40.775Z,101470.50
2018-10-09T16:31:09.395Z,101471.33
2018-10-09T16:33:37.698Z,101471.48
2018-10-09T16:36:05.996Z,101476.49
2018-10-09T16:38:34.268Z,101475.97
2018-10-09T16:41:02.536Z,101473.00
2018-10-09T16:43:30.833Z,101479.80
2018-10-09T16:45:59.187Z,101480.48
2018-10-09T16:48:27.458Z,101480.92
2018-10-09T16:50:55.725Z,101481.89
2018-10-09T16:53:23.984Z,101483.55
2018-10-09T16:55:52.252Z,101484.70
2018-10-09T16:58:20.542Z,101484.19
2018-10-09T17:00:48.807Z,101483.18
2018-10-09T17:03:37.954Z,101487.80
2018-10-09T17:06:07.056Z,101496.88
2018-10-09T17:08:35.656Z,101490.52
2018-10-09T17:11:03.951Z,101489.81
2018-10-09T17:13:32.224Z,101490.94
2018-10-09T17:16:00.509Z,101485.78
2018-10-09T17:18:28.783Z,101491.53
2018-10-09T17:20:56.995Z,101496.44
2018-10-09T17:23:25.305Z,101492.89
2018-10-09T17:25:53.589Z,101493.84
2018-10-09T17:28:21.896Z,101500.44
2018-10-09T17:30:50.124Z,101493.80
2018-10-09T17:33:18.553Z,101497.20
2018-10-09T17:35:46.741Z,101504.10
2018-10-09T17:38:15.019Z,101501.92
2018-10-09T17:40:43.292Z,101496.44
2018-10-09T17:43:11.566Z,101502.56
2018-10-09T17:45:39.834Z,101498.26
2018-10-09T17:48:08.112Z,101503.72
2018-10-09T17:50:36.456Z,101501.02
2018-10-09T17:53:04.719Z,101506.78
2018-10-09T17:55:32.983Z,101500.77
2018-10-09T17:58:01.327Z,101509.48
2018-10-09T18:00:29.590Z,101509.09
2018-10-09T18:02:57.909Z,101505.88
2018-10-09T18:05:26.172Z,101506.31
2018-10-09T18:07:54.451Z,101508.52
2018-10-09T18:10:22.724Z,101509.28
2018-10-09T18:12:50.966Z,101507.23
2018-10-09T18:15:19.707Z,101503.55
2018-10-09T18:17:48.288Z,101498.27
2018-10-09T18:20:16.590Z,101506.53
2018-10-09T18:22:44.831Z,101504.34
2018-10-09T18:25:13.166Z,101502.41
2018-10-09T18:27:41.476Z,101502.80
2018-10-09T18:30:10.269Z,101506.85
2018-10-09T18:32:38.662Z,101512.92
2018-10-09T18:35:06.956Z,101503.34
2018-10-09T18:37:35.204Z,101506.81
2018-10-09T18:40:03.512Z,101512.88
2018-10-09T18:42:31.885Z,101512.14
2018-10-09T18:45:00.101Z,101513.21
2018-10-09T18:47:33.742Z,101513.32
2018-10-09T18:50:02.012Z,101517.70
2018-10-09T18:52:30.269Z,101518.15
2018-10-09T18:54:58.851Z,101519.27
2018-10-09T18:57:27.196Z,101510.95
2018-10-09T18:59:55.512Z,101514.98
2018-10-09T19:02:23.803Z,101514.11
2018-10-09T19:04:52.195Z,101513.69
2018-10-09T19:07:20.499Z,101514.13
2018-10-09T19:09:49.097Z,101510.58
2018-10-09T19:12:17.820Z,101521.92
2018-10-09T19:14:46.548Z,101518.73
2018-10-09T19:17:14.918Z,101517.84
2018-10-09T19:19:43.529Z,101518.13
2018-10-09T19:22:11.842Z,101520.89
2018-10-09T19:24:40.143Z,101520.55
2018-10-09T19:27:08.431Z,101522.98
2018-10-09T19:29:36.697Z,101521.97
2018-10-09T19:32:04.951Z,101524.19
2018-10-09T19:34:33.260Z,101516.69
2018-10-09T19:37:01.540Z,101526.21
2018-10-09T19:39:29.905Z,101530.66
2018-10-09T19:41:58.100Z,101530.45
2018-10-09T19:44:26.379Z,101530.39
2018-10-09T19:46:54.653Z,101529.89
2018-10-09T19:49:22.908Z,101525.94
2018-10-09T19:51:51.181Z,101533.98
2018-10-09T19:54:19.426Z,101535.23
2018-10-09T19:56:47.676Z,101535.94
2018-10-09T19:59:15.997Z,101534.80
2018-10-09T20:01:44.253Z,101531.61
2018-10-09T20:04:12.550Z,101530.45
2018-10-09T20:06:40.839Z,101533.70
2018-10-09T20:09:10.938Z,101532.59
2018-10-09T20:11:39.325Z,101535.94
2018-10-09T20:14:08.581Z,101534.15
2018-10-09T20:16:36.895Z,101536.88
2018-10-09T20:19:05.207Z,101534.02
2018-10-09T20:21:33.804Z,101536.02
2018-10-09T20:24:02.096Z,101532.77
2018-10-09T20:26:30.356Z,101530.12
2018-10-09T20:28:58.619Z,101532.36
2018-10-09T20:31:26.924Z,101531.43
2018-10-09T20:33:55.221Z,101537.69
2018-10-09T20:36:23.736Z,101534.44
2018-10-09T20:38:52.019Z,101536.70
2018-10-09T20:41:20.336Z,101531.36
2018-10-09T20:43:48.708Z,101536.42
2018-10-09T20:46:17.114Z,101538.37
2018-10-09T20:48:45.600Z,101535.25
2018-10-09T20:51:14.053Z,101534.42
2018-10-09T20:53:42.340Z,101534.13
2018-10-09T20:56:10.624Z,101529.24
2018-10-09T20:58:39.194Z,101533.47
2018-10-09T21:01:07.608Z,101530.15
2018-10-09T21:03:35.934Z,101535.47
2018-10-09T21:06:04.258Z,101525.45
2018-10-09T21:08:32.506Z,101528.36
2018-10-09T21:11:00.810Z,101529.61
2018-10-09T21:13:29.078Z,101526.55
2018-10-09T21:15:57.374Z,101525.84
2018-10-09T21:18:25.869Z,101531.11
2018-10-09T21:20:54.138Z,101530.13
2018-10-09T21:23:22.407Z,101527.77
2018-10-09T21:25:50.682Z,101524.56
2018-10-09T21:28:18.974Z,101523.66
2018-10-09T21:30:47.239Z,101522.59
2018-10-09T21:33:15.520Z,101518.53
2018-10-09T21:35:43.814Z,101519.44
2018-10-09T21:38:12.106Z,101520.75
2018-10-09T21:40:40.394Z,101520.19
2018-10-09T21:43:08.694Z,101519.14
2018-10-09T21:45:36.971Z,101520.38
2018-10-09T21:48:05.630Z,101524.94
2018-10-09T21:50:33.929Z,101523.95
2018-10-09T21:53:02.232Z,101520.86
2018-10-09T21:55:30.622Z,101524.06
2018-10-09T21:57:59.135Z,101518.38
2018-10-09T22:00:27.622Z,101517.89
2018-10-09T22:02:56.307Z,101517.11
2018-10-09T22:05:24.622Z,101524.70
2018-10-09T22:07:53.354Z,101526.09
2018-10-09T22:10:21.704Z,101522.05
2018-10-09T22:12:49.982Z,101527.09
2018-10-09T22:15:18.243Z,101530.91
2018-10-09T22:17:46.519Z,101529.25
2018-10-09T22:20:14.780Z,101533.61
2018-10-09T22:22:43.056Z,101526.56
2018-10-09T22:25:11.322Z,101528.14
2018-10-09T22:27:39.640Z,101526.48
2018-10-09T22:30:07.911Z,101525.27
2018-10-09T22:32:36.216Z,101530.80
2018-10-09T22:35:04.522Z,101525.25
2018-10-09T22:37:32.782Z,101518.06
2018-10-09T22:40:01.100Z,101524.19
2018-10-09T22:42:29.375Z,101526.11
2018-10-09T22:44:57.634Z,101524.79
2018-10-09T22:47:25.915Z,101518.06
2018-10-09T22:49:54.221Z,101513.16
2018-10-09T22:52:22.570Z,101512.11
2018-10-09T22:54:50.922Z,101512.51
2018-10-09T22:57:19.235Z,101517.14
2018-10-09T22:59:47.526Z,101511.19
2018-10-09T23:02:15.835Z,101511.47
2018-10-09T23:04:44.122Z,101512.13
2018-10-09T23:07:12.463Z,101509.60
2018-10-09T23:09:41.147Z,101512.47
2018-10-09T23:12:09.406Z,101506.69
2018-10-09T23:14:37.678Z,101508.92
2018-10-09T23:17:05.963Z,101504.14
2018-10-09T23:19:34.215Z,101506.20
2018-10-09T23:22:02.548Z,101506.12
2018-10-09T23:24:30.775Z,101503.02
2018-10-09T23:26:59.040Z,101504.11
2018-10-09T23:29:27.363Z,101508.51
2018-10-09T23:31:55.645Z,101502.41
2018-10-09T23:34:23.941Z,101503.73
2018-10-09T23:36:52.277Z,101508.77
2018-10-09T23:39:20.535Z,101508.19
2018-10-09T23:41:48.846Z,101503.66
2018-10-09T23:44:17.115Z,101503.57
2018-10-09T23:46:45.450Z,101499.88
2018-10-09T23:49:13.749Z,101508.73
2018-10-09T23:51:42.050Z,101498.91
2018-10-09T23:54:10.334Z,101496.27
2018-10-09T23:56:38.651Z,101507.28
2018-10-09T23:59:07.519Z,101508.25
